createdAt,value
2016-09-26T00:00:42.490Z,0
2016-09-26T00:01:42.526Z,0
2016-09-26T00:02:42.553Z,0
2016-09-26T00:03:42.550Z,0
2016-09-26T00:04:42.560Z,0
2016-09-26T00:05:42.587Z,0
2016-09-26T00:06:42.612Z,0
2016-09-26T00:07:42.639Z,0
2016-09-26T00:08:42.651Z,0
2016-09-26T00:09:42.673Z,0
2016-09-26T00:10:42.690Z,0
2016-09-26T00:11:42.712Z,0
2016-09-26T00:12:42.746Z,0
2016-09-26T00:13:42.749Z,0
2016-09-26T00:14:42.777Z,0
2016-09-26T00:15:42.793Z,0
2016-09-26T00:16:42.815Z,0
2016-09-26T00:17:42.834Z,0
2016-09-26T00:18:42.880Z,0
2016-09-26T00:19:42.874Z,0
2016-09-26T00:20:42.902Z,0
2016-09-26T00:21:42.907Z,0
2016-09-26T00:22:42.942Z,0
2016-09-26T00:23:42.957Z,0
2016-09-26T00:24:42.985Z,0
2016-09-26T00:25:42.990Z,0
2016-09-26T00:26:43.016Z,0
2016-09-26T00:27:43.057Z,0
2016-09-26T00:28:43.053Z,0
2016-09-26T00:29:43.075Z,0
2016-09-26T00:30:43.100Z,0
2016-09-26T00:31:43.119Z,0
2016-09-26T00:32:43.143Z,0
2016-09-26T00:33:43.174Z,0
2016-09-26T00:34:43.181Z,0
2016-09-26T00:35:43.191Z,0
2016-09-26T00:36:43.220Z,0
2016-09-26T00:37:43.232Z,0
2016-09-26T00:38:43.254Z,0
2016-09-26T00:39:43.290Z,0
2016-09-26T00:40:43.313Z,0
2016-09-26T00:41:43.322Z,0
2016-09-26T00:42:43.354Z,0
2016-09-26T00:43:43.367Z,0
2016-09-26T00:44:43.379Z,0
2016-09-26T00:45:43.400Z,0
2016-09-26T00:46:43.417Z,0
2016-09-26T00:47:43.454Z,0
2016-09-26T00:48:43.464Z,0
2016-09-26T00:49:43.464Z,0
2016-09-26T00:50:43.510Z,0
2016-09-26T00:51:43.517Z,0
2016-09-26T00:52:43.542Z,0
2016-09-26T00:53:43.574Z,0
2016-09-26T00:54:43.591Z,0
2016-09-26T00:55:43.601Z,0
2016-09-26T00:56:43.617Z,0
2016-09-26T00:57:43.667Z,0
2016-09-26T00:58:43.676Z,0
2016-09-26T00:59:43.696Z,0
2016-09-26T01:00:43.718Z,0
2016-09-26T01:01:43.719Z,0
2016-09-26T01:02:43.755Z,0
2016-09-26T01:03:43.763Z,0
2016-09-26T01:04:43.783Z,0
2016-09-26T01:05:43.797Z,0
2016-09-26T01:06:43.826Z,0
2016-09-26T01:07:43.852Z,0
2016-09-26T01:08:43.880Z,0
2016-09-26T01:09:43.890Z,0
2016-09-26T01:10:43.908Z,0
2016-09-26T01:11:43.937Z,0
2016-09-26T01:12:43.951Z,0
2016-09-26T01:13:43.963Z,0
2016-09-26T01:14:43.988Z,0
2016-09-26T01:15:44.013Z,0
2016-09-26T01:16:44.023Z,0
2016-09-26T01:17:44.032Z,0
2016-09-26T01:18:44.058Z,0
2016-09-26T01:19:44.103Z,0
2016-09-26T01:20:44.104Z,0
2016-09-26T01:21:44.138Z,0
2016-09-26T01:22:44.170Z,0
2016-09-26T01:23:44.163Z,0
2016-09-26T01:24:44.196Z,0
2016-09-26T01:25:44.212Z,0
2016-09-26T01:26:44.249Z,0
2016-09-26T01:27:44.250Z,0
2016-09-26T01:28:44.262Z,0
2016-09-26T01:29:44.297Z,0
2016-09-26T01:30:44.309Z,0
2016-09-26T01:31:44.326Z,0
2016-09-26T01:32:44.362Z,0
2016-09-26T01:33:44.370Z,0
2016-09-26T01:34:44.408Z,0
2016-09-26T01:35:44.398Z,0
2016-09-26T01:36:44.441Z,0
2016-09-26T01:37:44.447Z,0
2016-09-26T01:38:44.481Z,0
2016-09-26T01:39:44.486Z,0
2016-09-26T01:40:44.511Z,0
2016-09-26T01:41:44.549Z,0
2016-09-26T01:42:44.564Z,0
2016-09-26T01:43:44.580Z,0
2016-09-26T01:44:44.602Z,0
2016-09-26T01:45:44.592Z,0
2016-09-26T01:46:44.639Z,0
2016-09-26T01:47:44.653Z,0
2016-09-26T01:48:44.677Z,0
2016-09-26T01:49:44.695Z,0
2016-09-26T01:50:44.708Z,0
2016-09-26T01:51:44.733Z,0
2016-09-26T01:52:44.754Z,0
2016-09-26T01:53:44.769Z,0
2016-09-26T01:54:44.792Z,0
2016-09-26T01:55:44.818Z,0
2016-09-26T01:56:44.845Z,0
2016-09-26T01:57:44.840Z,0
2016-09-26T01:58:44.858Z,0
2016-09-26T01:59:44.883Z,0
2016-09-26T02:00:44.914Z,0
2016-09-26T02:01:44.938Z,0
2016-09-26T02:02:44.946Z,0
2016-09-26T02:03:44.987Z,0
2016-09-26T02:04:44.987Z,0
2016-09-26T02:05:45.012Z,0
2016-09-26T02:06:45.038Z,0
2016-09-26T02:07:45.047Z,0
2016-09-26T02:08:45.092Z,0
2016-09-26T02:09:45.088Z,0
2016-09-26T02:10:45.106Z,0
2016-09-26T02:11:45.135Z,0
2016-09-26T02:12:45.134Z,0
2016-09-26T02:13:45.169Z,0
2016-09-26T02:14:45.168Z,0
2016-09-26T02:15:45.218Z,0
2016-09-26T02:16:45.223Z,0
2016-09-26T02:17:45.251Z,0
2016-09-26T02:18:45.266Z,0
2016-09-26T02:19:45.303Z,0
2016-09-26T02:20:45.311Z,0
2016-09-26T02:21:45.328Z,0
2016-09-26T02:22:45.348Z,0
2016-09-26T02:23:45.388Z,0
2016-09-26T02:24:45.394Z,0
2016-09-26T02:25:45.415Z,0
2016-09-26T02:26:45.437Z,0
2016-09-26T02:27:45.459Z,0
2016-09-26T02:28:45.486Z,0
2016-09-26T02:29:45.491Z,0
2016-09-26T02:30:45.516Z,0
2016-09-26T02:31:45.553Z,0
2016-09-26T02:32:45.550Z,0
2016-09-26T02:33:45.572Z,0
2016-09-26T02:34:45.606Z,0
2016-09-26T02:35:45.624Z,0
2016-09-26T02:36:45.635Z,0
2016-09-26T02:37:45.665Z,0
2016-09-26T02:38:45.679Z,0
2016-09-26T02:39:45.689Z,0
2016-09-26T02:40:45.714Z,0
2016-09-26T02:41:45.726Z,0
2016-09-26T02:42:45.764Z,0
2016-09-26T02:43:45.763Z,0
2016-09-26T02:44:45.788Z,0
2016-09-26T02:45:45.829Z,0
2016-09-26T02:46:45.837Z,0
2016-09-26T02:47:45.855Z,0
2016-09-26T02:48:45.876Z,0
2016-09-26T02:49:45.899Z,0
2016-09-26T02:50:45.922Z,0
2016-09-26T02:51:45.929Z,0
2016-09-26T02:52:45.960Z,0
2016-09-26T02:53:45.981Z,0
2016-09-26T02:54:46.003Z,0
2016-09-26T02:55:46.014Z,0
2016-09-26T02:56:46.037Z,0
2016-09-26T02:57:46.077Z,0
2016-09-26T02:58:46.082Z,0
2016-09-26T02:59:46.086Z,0
2016-09-26T03:00:46.120Z,0
2016-09-26T03:01:46.137Z,0
2016-09-26T03:02:46.146Z,0
2016-09-26T03:03:46.175Z,0
2016-09-26T03:04:46.206Z,0
2016-09-26T03:05:46.207Z,0
2016-09-26T03:06:46.232Z,0
2016-09-26T03:07:46.262Z,0
2016-09-26T03:08:46.266Z,0
2016-09-26T03:09:46.296Z,0
2016-09-26T03:10:46.306Z,0
2016-09-26T03:11:46.338Z,0
2016-09-26T03:12:46.353Z,0
2016-09-26T03:13:46.386Z,0
2016-09-26T03:14:46.388Z,0
2016-09-26T03:15:46.406Z,0
2016-09-26T03:16:46.422Z,0
2016-09-26T03:17:46.444Z,0
2016-09-26T03:18:46.470Z,0
2016-09-26T03:19:46.494Z,0
2016-09-26T03:20:46.509Z,0
2016-09-26T03:21:46.544Z,0
2016-09-26T03:22:46.549Z,0
2016-09-26T03:23:46.560Z,0
2016-09-26T03:24:46.582Z,0
2016-09-26T03:25:46.614Z,0
2016-09-26T03:26:46.643Z,0
2016-09-26T03:27:46.640Z,0
2016-09-26T03:28:46.663Z,0
2016-09-26T03:29:46.672Z,0
2016-09-26T03:30:46.702Z,0
2016-09-26T03:31:46.726Z,0
2016-09-26T03:32:46.757Z,0
2016-09-26T03:33:46.769Z,0
2016-09-26T03:34:46.811Z,0
2016-09-26T03:35:46.838Z,0
2016-09-26T03:36:46.852Z,0
2016-09-26T03:37:46.857Z,0
2016-09-26T03:38:46.868Z,0
2016-09-26T03:39:46.907Z,0
2016-09-26T03:40:46.918Z,0
2016-09-26T03:41:46.936Z,0
2016-09-26T03:42:46.964Z,0
2016-09-26T03:43:46.969Z,0
2016-09-26T03:44:47.004Z,0
2016-09-26T03:45:47.011Z,0
2016-09-26T03:46:47.044Z,0
2016-09-26T03:47:47.045Z,0
2016-09-26T03:48:47.082Z,0
2016-09-26T03:49:47.091Z,0
2016-09-26T03:50:47.112Z,0
2016-09-26T03:51:47.136Z,0
2016-09-26T03:52:47.163Z,0
2016-09-26T03:53:47.159Z,0
2016-09-26T03:54:47.185Z,0
2016-09-26T03:55:47.216Z,0
2016-09-26T03:56:47.236Z,0
2016-09-26T03:57:47.245Z,0
2016-09-26T03:58:47.275Z,0
2016-09-26T03:59:47.308Z,0
2016-09-26T04:01:47.299Z,0
2016-09-26T04:02:47.322Z,0
2016-09-26T04:03:47.349Z,0
2016-09-26T04:04:47.364Z,0
2016-09-26T04:05:47.393Z,0
2016-09-26T04:06:47.415Z,0
2016-09-26T04:07:47.427Z,0
2016-09-26T04:08:47.443Z,0
2016-09-26T04:09:47.465Z,0
2016-09-26T04:10:47.491Z,0
2016-09-26T04:11:47.499Z,0
2016-09-26T04:12:47.533Z,0
2016-09-26T04:13:47.557Z,0
2016-09-26T04:14:47.589Z,0
2016-09-26T04:15:47.581Z,0
2016-09-26T04:16:47.623Z,0
2016-09-26T04:17:47.644Z,0
2016-09-26T04:18:47.654Z,0
2016-09-26T04:19:47.669Z,0
2016-09-26T04:20:47.691Z,0
2016-09-26T04:21:47.699Z,0
2016-09-26T04:22:47.733Z,0
2016-09-26T04:23:47.758Z,0
2016-09-26T04:24:47.757Z,0
2016-09-26T04:25:47.791Z,0
2016-09-26T04:26:47.809Z,0
2016-09-26T04:27:47.822Z,0
2016-09-26T04:28:47.858Z,0
2016-09-26T04:29:47.856Z,0
2016-09-26T04:30:47.886Z,0
2016-09-26T04:31:47.917Z,0
2016-09-26T04:32:47.920Z,0
2016-09-26T04:33:47.942Z,0
2016-09-26T04:34:47.968Z,0
2016-09-26T04:35:47.989Z,0
2016-09-26T04:36:47.996Z,0
2016-09-26T04:37:48.019Z,0
2016-09-26T04:38:48.038Z,0
2016-09-26T04:39:48.069Z,0
2016-09-26T04:40:48.112Z,0
2016-09-26T04:41:48.094Z,0
2016-09-26T04:42:48.117Z,0
2016-09-26T04:43:48.145Z,0
2016-09-26T04:44:48.147Z,0
2016-09-26T04:45:48.174Z,0
2016-09-26T04:46:48.186Z,0
2016-09-26T04:47:48.222Z,0
2016-09-26T04:48:48.239Z,0
2016-09-26T04:49:48.249Z,0
2016-09-26T04:50:48.290Z,0
2016-09-26T04:51:48.312Z,0
2016-09-26T04:52:48.315Z,0
2016-09-26T04:53:48.345Z,0
2016-09-26T04:54:48.364Z,0
2016-09-26T04:55:48.381Z,4
2016-09-26T04:56:48.409Z,4
2016-09-26T04:57:48.425Z,0
2016-09-26T04:58:48.450Z,0
2016-09-26T04:59:48.477Z,4
2016-09-26T05:00:48.483Z,4
2016-09-26T05:01:48.486Z,8
2016-09-26T05:02:48.515Z,4
2016-09-26T05:03:48.517Z,8
2016-09-26T05:04:48.557Z,4
2016-09-26T05:05:48.589Z,8
2016-09-26T05:06:48.594Z,12
2016-09-26T05:07:48.611Z,12
2016-09-26T05:08:48.640Z,12
2016-09-26T05:09:48.658Z,16
2016-09-26T05:10:48.669Z,20
2016-09-26T05:11:48.674Z,24
2016-09-26T05:12:48.727Z,24
2016-09-26T05:13:48.747Z,28
2016-09-26T05:14:48.758Z,36
2016-09-26T05:15:48.774Z,40
2016-09-26T05:16:48.800Z,44
2016-09-26T05:17:48.826Z,48
2016-09-26T05:18:48.831Z,56
2016-09-26T05:19:48.870Z,64
2016-09-26T05:20:48.875Z,64
2016-09-26T05:21:48.899Z,72
2016-09-26T05:22:48.928Z,72
2016-09-26T05:23:48.928Z,76
2016-09-26T05:24:48.933Z,80
2016-09-26T05:25:49.012Z,80
2016-09-26T05:26:48.992Z,84
2016-09-26T05:27:49.022Z,88
2016-09-26T05:28:49.026Z,96
2016-09-26T05:29:49.053Z,112
2016-09-26T05:30:49.076Z,128
2016-09-26T05:31:49.103Z,144
2016-09-26T05:32:49.123Z,156
2016-09-26T05:33:49.127Z,168
2016-09-26T05:34:49.156Z,176
2016-09-26T05:35:49.185Z,180
2016-09-26T05:36:49.195Z,192
2016-09-26T05:37:49.217Z,200
2016-09-26T05:38:49.232Z,212
2016-09-26T05:39:49.250Z,216
2016-09-26T05:40:49.270Z,224
2016-09-26T05:41:49.288Z,224
2016-09-26T05:42:49.309Z,228
2016-09-26T05:43:49.335Z,236
2016-09-26T05:44:49.356Z,248
2016-09-26T05:45:49.375Z,264
2016-09-26T05:46:49.392Z,276
2016-09-26T05:47:49.410Z,292
2016-09-26T05:48:49.427Z,304
2016-09-26T05:49:49.444Z,324
2016-09-26T05:50:49.471Z,352
2016-09-26T05:51:49.493Z,396
2016-09-26T05:52:49.515Z,440
2016-09-26T05:53:49.538Z,480
2016-09-26T05:54:49.550Z,504
2016-09-26T05:55:49.572Z,528
2016-09-26T05:56:49.606Z,556
2016-09-26T05:57:49.604Z,584
2016-09-26T05:58:49.638Z,592
2016-09-26T05:59:49.647Z,584
2016-09-26T06:00:49.686Z,576
2016-09-26T06:01:49.695Z,580
2016-09-26T06:02:49.724Z,600
2016-09-26T06:03:49.747Z,624
2016-09-26T06:04:49.757Z,648
2016-09-26T06:05:49.770Z,680
2016-09-26T06:06:49.807Z,712
2016-09-26T06:07:49.799Z,748
2016-09-26T06:08:49.820Z,788
2016-09-26T06:09:49.874Z,828
2016-09-26T06:10:49.880Z,860
2016-09-26T06:11:49.891Z,904
2016-09-26T06:12:49.920Z,960
2016-09-26T06:13:49.941Z,1020
2016-09-26T06:14:49.953Z,1068
2016-09-26T06:15:49.974Z,1096
2016-09-26T06:16:50.007Z,1108
2016-09-26T06:17:50.030Z,1116
2016-09-26T06:18:50.040Z,1132
2016-09-26T06:19:50.057Z,1160
2016-09-26T06:20:50.070Z,1188
2016-09-26T06:21:50.108Z,1192
2016-09-26T06:22:50.113Z,1180
2016-09-26T06:23:50.133Z,1172
2016-09-26T06:24:50.172Z,1204
2016-09-26T06:25:50.198Z,1268
2016-09-26T06:26:50.211Z,1352
2016-09-26T06:27:50.219Z,1424
2016-09-26T06:28:50.232Z,1468
2016-09-26T06:29:50.263Z,1500
2016-09-26T06:30:50.289Z,1560
2016-09-26T06:31:50.299Z,1656
2016-09-26T06:32:50.333Z,1796
2016-09-26T06:33:50.353Z,1964
2016-09-26T06:34:50.344Z,2092
2016-09-26T06:35:50.371Z,2164
2016-09-26T06:36:50.402Z,2212
2016-09-26T06:37:50.402Z,2272
2016-09-26T06:38:50.421Z,2340
2016-09-26T06:39:50.464Z,2376
2016-09-26T06:40:50.482Z,2392
2016-09-26T06:41:50.504Z,2332
2016-09-26T06:42:50.531Z,2284
2016-09-26T06:43:50.536Z,2360
2016-09-26T06:44:50.554Z,2436
2016-09-26T06:45:50.579Z,2516
2016-09-26T06:46:50.602Z,2592
2016-09-26T06:47:50.605Z,2684
2016-09-26T06:48:50.649Z,2752
2016-09-26T06:49:50.647Z,2708
2016-09-26T06:50:50.676Z,2608
2016-09-26T06:51:50.689Z,2632
2016-09-26T06:52:50.729Z,2600
2016-09-26T06:53:50.743Z,2652
2016-09-26T06:54:50.755Z,2752
2016-09-26T06:55:50.769Z,2880
2016-09-26T06:56:50.792Z,2976
2016-09-26T06:57:50.846Z,3112
2016-09-26T06:58:50.883Z,3308
2016-09-26T06:59:50.859Z,3540
2016-09-26T07:00:50.880Z,3728
2016-09-26T07:01:50.948Z,3912
2016-09-26T07:02:50.947Z,4072
2016-09-26T07:03:50.948Z,4184
2016-09-26T07:04:50.957Z,4196
2016-09-26T07:05:50.989Z,4196
2016-09-26T07:06:51.018Z,4060
2016-09-26T07:07:51.024Z,3888
2016-09-26T07:08:51.049Z,3712
2016-09-26T07:09:51.078Z,3472
2016-09-26T07:10:51.072Z,3200
2016-09-26T07:11:51.103Z,2940
2016-09-26T07:12:51.122Z,2692
2016-09-26T07:13:51.139Z,2496
2016-09-26T07:14:51.168Z,2364
2016-09-26T07:15:51.188Z,2292
2016-09-26T07:16:51.221Z,2268
2016-09-26T07:17:51.231Z,2280
2016-09-26T07:18:51.256Z,2312
2016-09-26T07:19:51.282Z,2352
2016-09-26T07:20:51.298Z,2404
2016-09-26T07:21:51.324Z,2444
2016-09-26T07:22:51.334Z,2484
2016-09-26T07:23:51.362Z,2528
2016-09-26T07:24:51.372Z,2568
2016-09-26T07:25:51.397Z,2612
2016-09-26T07:26:51.422Z,2636
2016-09-26T07:27:51.458Z,2636
2016-09-26T07:28:51.461Z,2636
2016-09-26T07:29:51.469Z,2652
2016-09-26T07:30:51.502Z,2688
2016-09-26T07:31:51.523Z,2760
2016-09-26T07:32:51.541Z,2860
2016-09-26T07:33:51.568Z,2988
2016-09-26T07:34:51.592Z,3116
2016-09-26T07:35:51.608Z,3240
2016-09-26T07:36:51.622Z,3264
2016-09-26T07:37:51.654Z,3268
2016-09-26T07:38:51.677Z,3220
2016-09-26T07:39:51.682Z,3180
2016-09-26T07:40:51.722Z,3156
2016-09-26T07:41:51.725Z,3160
2016-09-26T07:42:51.748Z,3220
2016-09-26T07:43:51.769Z,3316
2016-09-26T07:44:51.791Z,3408
2016-09-26T07:45:51.837Z,3496
2016-09-26T07:46:51.834Z,3556
2016-09-26T07:47:51.855Z,3556
2016-09-26T07:48:51.883Z,3496
2016-09-26T07:49:51.904Z,3424
2016-09-26T07:50:51.923Z,3340
2016-09-26T07:51:51.922Z,3268
2016-09-26T07:52:51.946Z,3240
2016-09-26T07:53:51.972Z,3224
2016-09-26T07:54:51.997Z,3232
2016-09-26T07:55:52.028Z,3252
2016-09-26T07:56:52.041Z,3280
2016-09-26T07:57:52.062Z,3316
2016-09-26T07:58:52.079Z,3380
2016-09-26T07:59:52.108Z,3456
2016-09-26T08:00:52.134Z,3552
2016-09-26T08:01:52.155Z,3660
2016-09-26T08:02:52.167Z,3724
2016-09-26T08:03:52.181Z,3756
2016-09-26T08:04:52.194Z,3736
2016-09-26T08:05:52.246Z,3652
2016-09-26T08:06:52.230Z,3544
2016-09-26T08:07:52.275Z,3452
2016-09-26T08:08:52.313Z,3376
2016-09-26T08:09:52.307Z,3324
2016-09-26T08:10:52.330Z,3292
2016-09-26T08:11:52.347Z,3264
2016-09-26T08:12:52.414Z,3252
2016-09-26T08:13:52.400Z,3260
2016-09-26T08:14:52.479Z,3256
2016-09-26T08:15:52.472Z,3196
2016-09-26T08:16:52.491Z,3064
2016-09-26T08:17:52.494Z,2884
2016-09-26T08:18:52.505Z,2704
2016-09-26T08:19:52.529Z,2580
2016-09-26T08:20:52.544Z,2560
2016-09-26T08:21:52.583Z,2640
2016-09-26T08:22:52.586Z,2792
2016-09-26T08:23:52.591Z,2968
2016-09-26T08:24:52.623Z,3104
2016-09-26T08:25:52.647Z,3172
2016-09-26T08:26:52.640Z,3172
2016-09-26T08:27:52.702Z,3152
2016-09-26T08:28:52.706Z,3156
2016-09-26T08:29:52.728Z,3192
2016-09-26T08:30:52.739Z,3244
2016-09-26T08:31:52.761Z,3280
2016-09-26T08:32:52.779Z,3260
2016-09-26T08:33:52.811Z,3188
2016-09-26T08:34:52.824Z,3092
2016-09-26T08:35:52.904Z,2980
2016-09-26T08:36:52.853Z,2904
2016-09-26T08:37:52.886Z,2872
2016-09-26T08:38:52.900Z,2868
2016-09-26T08:39:52.930Z,2888
2016-09-26T08:40:52.959Z,2908
2016-09-26T08:41:52.956Z,2904
2016-09-26T08:42:52.985Z,2876
2016-09-26T08:43:53.010Z,2844
2016-09-26T08:44:53.038Z,2840
2016-09-26T08:45:53.032Z,2884
2016-09-26T08:46:53.072Z,2984
2016-09-26T08:47:53.082Z,3120
2016-09-26T08:48:53.118Z,3308
2016-09-26T08:49:53.143Z,3504
2016-09-26T08:50:53.167Z,3688
2016-09-26T08:51:53.186Z,3820
2016-09-26T08:52:53.185Z,3908
2016-09-26T08:53:53.204Z,3988
2016-09-26T08:54:53.242Z,4148
2016-09-26T08:55:53.262Z,4300
2016-09-26T08:56:53.286Z,4568
2016-09-26T08:57:53.287Z,4812
2016-09-26T08:58:53.316Z,5000
2016-09-26T08:59:53.329Z,5108
2016-09-26T09:00:53.375Z,5216
2016-09-26T09:01:53.380Z,5272
2016-09-26T09:02:53.399Z,5300
2016-09-26T09:03:53.421Z,5340
2016-09-26T09:04:53.433Z,5428
2016-09-26T09:05:53.465Z,5420
2016-09-26T09:06:53.481Z,5280
2016-09-26T09:07:53.509Z,5084
2016-09-26T09:08:53.540Z,4876
2016-09-26T09:09:53.544Z,4668
2016-09-26T09:10:53.567Z,4500
2016-09-26T09:11:53.606Z,4440
2016-09-26T09:12:53.620Z,4400
2016-09-26T09:13:53.634Z,4432
2016-09-26T09:14:53.649Z,4492
2016-09-26T09:15:53.686Z,4568
2016-09-26T09:16:53.691Z,4672
2016-09-26T09:17:53.700Z,4820
2016-09-26T09:18:53.746Z,5008
2016-09-26T09:19:53.764Z,5264
2016-09-26T09:20:53.770Z,5536
2016-09-26T09:21:53.802Z,5908
2016-09-26T09:22:53.829Z,6276
2016-09-26T09:23:53.849Z,6660
2016-09-26T09:24:53.851Z,6976
2016-09-26T09:25:53.887Z,7220
2016-09-26T09:26:53.916Z,7624
2016-09-26T09:27:53.941Z,8100
2016-09-26T09:28:53.933Z,7996
2016-09-26T09:29:53.968Z,7988
2016-09-26T09:30:53.980Z,8336
2016-09-26T09:31:54.029Z,8664
2016-09-26T09:32:54.048Z,9204
2016-09-26T09:33:54.058Z,9624
2016-09-26T09:34:54.067Z,9812
2016-09-26T09:35:54.109Z,9752
2016-09-26T09:36:54.123Z,8648
2016-09-26T09:37:54.122Z,7944
2016-09-26T09:38:54.175Z,7520
2016-09-26T09:39:54.195Z,7324
2016-09-26T09:40:54.211Z,7204
2016-09-26T09:41:54.223Z,7120
2016-09-26T09:42:54.239Z,7040
2016-09-26T09:43:54.279Z,6948
2016-09-26T09:44:54.303Z,6864
2016-09-26T09:45:54.320Z,6840
2016-09-26T09:46:54.339Z,6884
2016-09-26T09:47:54.347Z,7012
2016-09-26T09:48:54.390Z,7248
2016-09-26T09:49:54.405Z,7400
2016-09-26T09:50:54.417Z,7776
2016-09-26T09:51:54.434Z,9016
2016-09-26T09:52:54.463Z,10148
2016-09-26T09:53:54.500Z,10472
2016-09-26T09:54:54.504Z,10184
2016-09-26T09:55:54.531Z,9996
2016-09-26T09:56:54.555Z,10368
2016-09-26T09:57:54.580Z,10108
2016-09-26T09:58:54.612Z,9628
2016-09-26T09:59:54.606Z,9868
2016-09-26T10:00:54.649Z,9884
2016-09-26T10:01:54.652Z,9892
2016-09-26T10:02:54.686Z,10296
2016-09-26T10:03:54.725Z,9148
2016-09-26T10:04:54.739Z,8860
2016-09-26T10:05:54.747Z,8724
2016-09-26T10:06:54.784Z,7796
2016-09-26T10:07:54.812Z,7772
2016-09-26T10:08:54.824Z,8576
2016-09-26T10:09:54.863Z,8168
2016-09-26T10:10:54.860Z,6980
2016-09-26T10:11:54.893Z,6916
2016-09-26T10:12:54.904Z,7184
2016-09-26T10:13:54.926Z,7500
2016-09-26T10:14:54.950Z,7928
2016-09-26T10:15:54.991Z,8244
2016-09-26T10:16:54.992Z,8228
2016-09-26T10:17:55.016Z,8068
2016-09-26T10:18:55.033Z,7872
2016-09-26T10:19:55.066Z,7720
2016-09-26T10:20:55.091Z,7744
2016-09-26T10:21:55.120Z,7952
2016-09-26T10:22:55.132Z,8228
2016-09-26T10:23:55.163Z,9128
2016-09-26T10:24:55.177Z,8816
2016-09-26T10:25:55.211Z,8488
2016-09-26T10:26:55.229Z,8572
2016-09-26T10:27:55.249Z,8696
2016-09-26T10:28:55.253Z,8812
2016-09-26T10:29:55.296Z,8932
2016-09-26T10:30:55.311Z,8920
2016-09-26T10:31:55.344Z,8900
2016-09-26T10:32:55.364Z,8772
2016-09-26T10:33:55.370Z,9028
2016-09-26T10:34:55.420Z,9356
2016-09-26T10:35:55.428Z,8628
2016-09-26T10:36:55.443Z,8784
2016-09-26T10:37:55.478Z,8496
2016-09-26T10:38:55.495Z,7372
2016-09-26T10:39:55.514Z,7420
2016-09-26T10:40:55.536Z,7352
2016-09-26T10:41:55.552Z,7532
2016-09-26T10:42:55.582Z,8128
2016-09-26T10:43:55.627Z,10172
2016-09-26T10:44:55.635Z,10076
2016-09-26T10:45:55.640Z,9244
2016-09-26T10:46:55.693Z,9308
2016-09-26T10:47:55.700Z,9756
2016-09-26T10:48:55.713Z,9068
2016-09-26T10:49:55.739Z,8224
2016-09-26T10:50:55.756Z,9424
2016-09-26T10:51:55.801Z,8860
2016-09-26T10:52:55.819Z,7848
2016-09-26T10:53:55.834Z,7420
2016-09-26T10:54:55.866Z,7092
2016-09-26T10:55:55.869Z,6948
2016-09-26T10:56:55.911Z,6868
2016-09-26T10:57:55.930Z,6904
2016-09-26T10:58:55.941Z,7036
2016-09-26T10:59:55.975Z,7164
2016-09-26T11:00:55.998Z,7052
2016-09-26T11:01:56.034Z,6868
2016-09-26T11:02:56.046Z,6828
2016-09-26T11:03:56.076Z,6696
2016-09-26T11:04:56.077Z,6608
2016-09-26T11:05:56.113Z,6584
2016-09-26T11:06:56.130Z,6500
2016-09-26T11:07:56.137Z,6348
2016-09-26T11:08:56.175Z,6248
2016-09-26T11:09:56.197Z,6200
2016-09-26T11:10:56.227Z,6072
2016-09-26T11:11:56.236Z,6040
2016-09-26T11:12:56.244Z,6180
2016-09-26T11:13:56.288Z,6404
2016-09-26T11:14:56.307Z,6600
2016-09-26T11:15:56.341Z,6688
2016-09-26T11:16:56.353Z,6688
2016-09-26T11:17:56.384Z,6732
2016-09-26T11:18:56.402Z,6828
2016-09-26T11:19:56.422Z,6852
2016-09-26T11:20:56.448Z,6840
2016-09-26T11:21:56.587Z,6860
2016-09-26T11:22:56.492Z,7132
2016-09-26T11:23:56.520Z,7648
2016-09-26T11:24:56.525Z,9484
2016-09-26T11:25:56.541Z,9280
2016-09-26T11:26:56.575Z,10596
2016-09-26T11:27:56.604Z,10700
2016-09-26T11:28:56.666Z,10712
2016-09-26T11:29:56.641Z,10296
2016-09-26T11:30:56.709Z,10004
2016-09-26T11:31:56.687Z,11080
2016-09-26T11:32:56.784Z,11004
2016-09-26T11:33:56.742Z,11060
2016-09-26T11:34:56.789Z,10964
2016-09-26T11:35:56.779Z,11112
2016-09-26T11:36:56.820Z,11304
2016-09-26T11:37:56.837Z,11528
2016-09-26T11:38:56.863Z,11644
2016-09-26T11:39:56.872Z,11620
2016-09-26T11:40:56.921Z,11464
2016-09-26T11:41:56.912Z,11268
2016-09-26T11:42:56.946Z,11104
2016-09-26T11:43:56.965Z,10944
2016-09-26T11:44:57.004Z,10752
2016-09-26T11:45:57.014Z,10920
2016-09-26T11:46:57.028Z,10856
2016-09-26T11:47:57.056Z,9732
2016-09-26T11:48:57.059Z,10748
2016-09-26T11:49:57.102Z,11008
2016-09-26T11:50:57.132Z,8120
2016-09-26T11:51:57.147Z,8160
2016-09-26T11:52:57.164Z,8236
2016-09-26T11:53:57.201Z,9184
2016-09-26T11:54:57.231Z,8608
2016-09-26T11:55:57.247Z,8580
2016-09-26T11:56:57.278Z,8912
2016-09-26T11:57:57.289Z,10196
2016-09-26T11:58:57.325Z,9528
2016-09-26T11:59:57.355Z,8616
2016-09-26T12:00:57.352Z,8592
2016-09-26T12:01:57.391Z,8732
2016-09-26T12:02:57.418Z,8784
2016-09-26T12:03:57.435Z,8884
2016-09-26T12:04:57.450Z,8800
2016-09-26T12:05:57.490Z,9020
2016-09-26T12:06:57.512Z,9448
2016-09-26T12:07:57.529Z,9868
2016-09-26T12:09:12.390Z,10032
2016-09-26T12:09:57.561Z,10148
2016-09-26T12:10:57.604Z,10596
2016-09-26T12:11:57.635Z,11288
2016-09-26T12:12:57.664Z,12340
2016-09-26T12:13:57.665Z,12344
2016-09-26T12:14:57.903Z,12332
2016-09-26T12:15:57.704Z,11060
2016-09-26T12:16:57.741Z,11276
2016-09-26T12:17:57.772Z,9788
2016-09-26T12:18:57.782Z,9288
2016-09-26T12:19:57.806Z,9348
2016-09-26T12:20:57.839Z,9572
2016-09-26T12:21:57.864Z,9856
2016-09-26T12:22:57.889Z,10908
2016-09-26T12:23:57.913Z,11436
2016-09-26T12:24:57.921Z,11068
2016-09-26T12:25:57.950Z,11512
2016-09-26T12:26:57.979Z,11608
2016-09-26T12:27:57.990Z,11824
2016-09-26T12:28:58.015Z,11852
2016-09-26T12:29:58.045Z,10360
2016-09-26T12:30:58.081Z,9476
2016-09-26T12:31:58.096Z,8892
2016-09-26T12:32:58.122Z,8944
2016-09-26T12:33:58.147Z,8716
2016-09-26T12:34:58.179Z,8764
2016-09-26T12:35:58.175Z,8616
2016-09-26T12:36:58.217Z,8464
2016-09-26T12:37:58.232Z,8188
2016-09-26T12:38:58.276Z,8240
2016-09-26T12:39:58.279Z,8096
2016-09-26T12:40:58.297Z,7904
2016-09-26T12:41:58.347Z,7836
2016-09-26T12:42:58.355Z,7724
2016-09-26T12:43:58.455Z,7660
2016-09-26T12:44:58.395Z,7604
2016-09-26T12:45:58.425Z,7592
2016-09-26T12:46:58.444Z,7548
2016-09-26T12:47:58.476Z,7492
2016-09-26T12:48:58.502Z,7432
2016-09-26T12:49:58.526Z,7380
2016-09-26T12:50:58.552Z,7336
2016-09-26T12:51:58.571Z,7312
2016-09-26T12:52:58.581Z,7312
2016-09-26T12:53:58.613Z,7264
2016-09-26T12:54:58.644Z,7176
2016-09-26T12:55:58.657Z,7120
2016-09-26T12:56:58.698Z,7096
2016-09-26T12:57:58.704Z,7068
2016-09-26T12:58:58.743Z,7040
2016-09-26T12:59:58.770Z,7036
2016-09-26T13:00:58.791Z,7020
2016-09-26T13:01:58.804Z,7040
2016-09-26T13:02:58.877Z,7044
2016-09-26T13:03:58.849Z,7068
2016-09-26T13:04:58.881Z,7132
2016-09-26T13:05:58.889Z,7172
2016-09-26T13:06:58.989Z,7080
2016-09-26T13:07:58.942Z,6964
2016-09-26T13:08:59.027Z,6888
2016-09-26T13:09:58.991Z,6848
2016-09-26T13:10:59.025Z,6864
2016-09-26T13:11:59.043Z,6920
2016-09-26T13:12:59.083Z,6988
2016-09-26T13:13:59.076Z,7040
2016-09-26T13:14:59.112Z,7064
2016-09-26T13:15:59.119Z,7032
2016-09-26T13:16:59.199Z,7036
2016-09-26T13:17:59.180Z,7076
2016-09-26T13:18:59.226Z,7080
2016-09-26T13:19:59.222Z,7076
2016-09-26T13:20:59.236Z,7072
2016-09-26T13:21:59.276Z,7104
2016-09-26T13:22:59.292Z,7148
2016-09-26T13:23:59.316Z,7188
2016-09-26T13:24:59.336Z,7216
2016-09-26T13:25:59.363Z,7272
2016-09-26T13:26:59.368Z,7344
2016-09-26T13:27:59.409Z,7392
2016-09-26T13:28:59.435Z,7432
2016-09-26T13:29:59.439Z,7440
2016-09-26T13:30:59.477Z,7388
2016-09-26T13:31:59.500Z,7296
2016-09-26T13:32:59.523Z,7172
2016-09-26T13:33:59.532Z,7000
2016-09-26T13:34:59.559Z,6860
2016-09-26T13:35:59.588Z,6732
2016-09-26T13:36:59.602Z,6632
2016-09-26T13:37:59.616Z,6508
2016-09-26T13:38:59.645Z,6372
2016-09-26T13:39:59.671Z,6220
2016-09-26T13:40:59.712Z,6076
2016-09-26T13:41:59.728Z,5936
2016-09-26T13:42:59.762Z,5796
2016-09-26T13:43:59.769Z,5664
2016-09-26T13:44:59.790Z,5544
2016-09-26T13:45:59.832Z,5432
2016-09-26T13:46:59.828Z,5332
2016-09-26T13:47:59.861Z,5228
2016-09-26T13:48:59.887Z,5152
2016-09-26T13:49:59.911Z,5104
2016-09-26T13:50:59.940Z,5068
2016-09-26T13:51:59.941Z,5004